PSCTB SNRU-SIBZ
Flight info
| Callsign | PSCTB |
|---|---|
| Flight time | 0h 56m |
| Altitude | 8500 |
| Route | 0810S03622W DCT 0803S03638W 0758S03650W 0753S03700W 0739S03726W DCT 0731S03741W DCT 0722S03759W |
| Aircraft | C208/L-SDFGR/C |
Departure
| Time | 2026-04-19 13:47 |
|---|---|
| Airport | Caruaru Airport (SNRU) |
Arrival
| Time | 2026-04-19 14:44 |
|---|---|
| Airport | Itaporanga Airport (SIBZ) |
| Time | Latitude | Longitude | Altitude | Speed | Heading |
|---|---|---|---|---|---|
| 2026-04-19 13:39 | -8.28455 | -36.01057 | 1822 ft | 0 kts | 195° |
| 2026-04-19 13:41 | -8.28444 | -36.01053 | 1822 ft | 2 kts | 208° |
| 2026-04-19 13:41 | -8.28438 | -36.01047 | 1822 ft | 1 kts | 255° |
| 2026-04-19 13:42 | -8.28439 | -36.01039 | 1822 ft | 1 kts | 292° |
| 2026-04-19 13:42 | -8.28442 | -36.01033 | 1822 ft | 0 kts | 299° |
| 2026-04-19 13:43 | -8.28441 | -36.01034 | 1822 ft | 0 kts | 300° |
| 2026-04-19 13:43 | -8.28434 | -36.01045 | 1822 ft | 2 kts | 321° |
| 2026-04-19 13:44 | -8.28418 | -36.01052 | 1822 ft | 4 kts | 348° |
| 2026-04-19 13:44 | -8.28395 | -36.01051 | 1822 ft | 4 kts | 16° |
| 2026-04-19 13:44 | -8.28339 | -36.01029 | 1822 ft | 12 kts | 45° |
| 2026-04-19 13:44 | -8.28345 | -36.00922 | 1822 ft | 19 kts | 104° |
| 2026-04-19 13:45 | -8.28384 | -36.00772 | 1822 ft | 19 kts | 106° |
| 2026-04-19 13:45 | -8.28417 | -36.00659 | 1822 ft | 11 kts | 104° |
| 2026-04-19 13:45 | -8.28406 | -36.00577 | 1822 ft | 13 kts | 126° |
| 2026-04-19 13:45 | -8.28430 | -36.00612 | 1822 ft | 6 kts | 283° |
| 2026-04-19 13:46 | -8.28416 | -36.00673 | 1822 ft | 29 kts | 283° |
| 2026-04-19 13:46 | -8.28327 | -36.01020 | 1822 ft | 72 kts | 285° |
| 2026-04-19 13:46 | -8.28161 | -36.01624 | 1832 ft | 102 kts | 285° |
| 2026-04-19 13:46 | -8.27988 | -36.02329 | 2041 ft | 103 kts | 281° |
| 2026-04-19 13:47 | -8.27753 | -36.03026 | 2172 ft | 113 kts | 294° |
| 2026-04-19 13:47 | -8.27442 | -36.03782 | 2321 ft | 118 kts | 290° |
| 2026-04-19 13:47 | -8.27168 | -36.04542 | 2514 ft | 116 kts | 289° |
| 2026-04-19 13:47 | -8.26909 | -36.05303 | 2721 ft | 115 kts | 288° |
| 2026-04-19 13:48 | -8.26647 | -36.06101 | 2893 ft | 123 kts | 288° |
| 2026-04-19 13:48 | -8.26371 | -36.06933 | 3092 ft | 128 kts | 287° |
| 2026-04-19 13:48 | -8.26082 | -36.07813 | 3296 ft | 133 kts | 288° |
| 2026-04-19 13:48 | -8.25788 | -36.08707 | 3502 ft | 138 kts | 287° |
| 2026-04-19 13:49 | -8.25483 | -36.09649 | 3654 ft | 143 kts | 287° |
| 2026-04-19 13:49 | -8.25172 | -36.10608 | 3812 ft | 147 kts | 288° |
| 2026-04-19 13:49 | -8.24873 | -36.11520 | 3958 ft | 150 kts | 287° |
| 2026-04-19 13:49 | -8.24550 | -36.12517 | 4110 ft | 152 kts | 287° |
| 2026-04-19 13:50 | -8.24212 | -36.13548 | 4266 ft | 154 kts | 288° |
| 2026-04-19 13:50 | -8.23879 | -36.14570 | 4422 ft | 155 kts | 287° |
| 2026-04-19 13:50 | -8.23542 | -36.15605 | 4573 ft | 156 kts | 288° |
| 2026-04-19 13:50 | -8.23201 | -36.16649 | 4726 ft | 156 kts | 287° |
| 2026-04-19 13:51 | -8.22859 | -36.17699 | 4878 ft | 157 kts | 287° |
| 2026-04-19 13:51 | -8.22521 | -36.18737 | 5023 ft | 156 kts | 287° |
| 2026-04-19 13:51 | -8.22180 | -36.19782 | 5170 ft | 155 kts | 288° |
| 2026-04-19 13:51 | -8.21848 | -36.20800 | 5323 ft | 153 kts | 287° |
| 2026-04-19 13:52 | -8.21509 | -36.21838 | 5474 ft | 155 kts | 288° |
| 2026-04-19 13:52 | -8.21174 | -36.22867 | 5621 ft | 155 kts | 287° |
| 2026-04-19 13:52 | -8.20834 | -36.23909 | 5773 ft | 156 kts | 287° |
| 2026-04-19 13:52 | -8.20496 | -36.24942 | 5922 ft | 156 kts | 287° |
| 2026-04-19 13:53 | -8.20157 | -36.25981 | 6073 ft | 156 kts | 288° |
| 2026-04-19 13:53 | -8.19814 | -36.27032 | 6229 ft | 157 kts | 287° |
| 2026-04-19 13:53 | -8.19474 | -36.28071 | 6372 ft | 157 kts | 287° |
| 2026-04-19 13:53 | -8.19129 | -36.29131 | 6524 ft | 157 kts | 287° |
| 2026-04-19 13:54 | -8.18788 | -36.30172 | 6673 ft | 157 kts | 287° |
| 2026-04-19 13:54 | -8.18449 | -36.31211 | 6822 ft | 157 kts | 287° |
| 2026-04-19 13:54 | -8.18125 | -36.32206 | 6964 ft | 157 kts | 287° |
| 2026-04-19 13:54 | -8.17780 | -36.33257 | 7114 ft | 157 kts | 288° |
| 2026-04-19 13:55 | -8.17441 | -36.34294 | 7263 ft | 157 kts | 288° |
| 2026-04-19 13:55 | -8.17098 | -36.35348 | 7413 ft | 157 kts | 287° |
| 2026-04-19 13:55 | -8.16777 | -36.36326 | 7553 ft | 158 kts | 287° |
| 2026-04-19 13:55 | -8.16367 | -36.37354 | 7707 ft | 158 kts | 294° |
| 2026-04-19 13:56 | -8.15920 | -36.38360 | 7852 ft | 158 kts | 293° |
| 2026-04-19 13:56 | -8.15473 | -36.39387 | 8002 ft | 158 kts | 293° |
| 2026-04-19 13:56 | -8.15036 | -36.40392 | 8151 ft | 157 kts | 293° |
| 2026-04-19 13:56 | -8.14595 | -36.41406 | 8299 ft | 157 kts | 293° |
| 2026-04-19 13:57 | -8.14149 | -36.42425 | 8450 ft | 157 kts | 293° |
| 2026-04-19 13:57 | -8.13705 | -36.43439 | 8498 ft | 164 kts | 293° |
| 2026-04-19 13:57 | -8.13233 | -36.44519 | 8506 ft | 170 kts | 293° |
| 2026-04-19 13:57 | -8.12751 | -36.45620 | 8511 ft | 174 kts | 293° |
| 2026-04-19 13:58 | -8.12255 | -36.46757 | 8508 ft | 178 kts | 293° |
| 2026-04-19 13:58 | -8.11752 | -36.47906 | 8509 ft | 179 kts | 293° |
| 2026-04-19 13:58 | -8.11252 | -36.49050 | 8510 ft | 180 kts | 293° |
| 2026-04-19 13:58 | -8.10741 | -36.50216 | 8507 ft | 180 kts | 293° |
| 2026-04-19 13:59 | -8.10239 | -36.51363 | 8509 ft | 180 kts | 293° |
| 2026-04-19 13:59 | -8.09730 | -36.52528 | 8510 ft | 181 kts | 293° |
| 2026-04-19 13:59 | -8.09217 | -36.53698 | 8509 ft | 181 kts | 293° |
| 2026-04-19 13:59 | -8.08713 | -36.54851 | 8510 ft | 182 kts | 293° |
| 2026-04-19 14:00 | -8.08198 | -36.56026 | 8508 ft | 182 kts | 293° |
| 2026-04-19 14:00 | -8.07690 | -36.57187 | 8507 ft | 183 kts | 293° |
| 2026-04-19 14:00 | -8.07212 | -36.58279 | 8506 ft | 183 kts | 293° |
| 2026-04-19 14:00 | -8.06870 | -36.59062 | 8507 ft | 183 kts | 293° |
| 2026-04-19 14:01 | -8.06350 | -36.60248 | 8506 ft | 183 kts | 293° |
| 2026-04-19 14:01 | -8.05842 | -36.61408 | 8506 ft | 183 kts | 293° |
| 2026-04-19 14:01 | -8.05160 | -36.62965 | 8507 ft | 182 kts | 293° |
| 2026-04-19 14:01 | -8.04834 | -36.63752 | 8506 ft | 182 kts | 290° |
| 2026-04-19 14:02 | -8.04356 | -36.64922 | 8504 ft | 181 kts | 293° |
| 2026-04-19 14:02 | -8.03859 | -36.66079 | 8505 ft | 181 kts | 292° |
| 2026-04-19 14:02 | -8.03366 | -36.67258 | 8503 ft | 181 kts | 292° |
| 2026-04-19 14:02 | -8.02878 | -36.68428 | 8504 ft | 181 kts | 292° |
| 2026-04-19 14:03 | -8.02395 | -36.69587 | 8504 ft | 181 kts | 292° |
| 2026-04-19 14:03 | -8.01905 | -36.70762 | 8504 ft | 181 kts | 292° |
| 2026-04-19 14:03 | -8.01433 | -36.71897 | 8504 ft | 181 kts | 292° |
| 2026-04-19 14:03 | -8.00946 | -36.73066 | 8505 ft | 181 kts | 292° |
| 2026-04-19 14:04 | -8.00459 | -36.74232 | 8505 ft | 181 kts | 292° |
| 2026-04-19 14:04 | -7.99970 | -36.75408 | 8505 ft | 181 kts | 292° |
| 2026-04-19 14:04 | -7.99483 | -36.76576 | 8505 ft | 181 kts | 292° |
| 2026-04-19 14:04 | -7.98991 | -36.77757 | 8505 ft | 181 kts | 292° |
| 2026-04-19 14:05 | -7.98505 | -36.78921 | 8505 ft | 181 kts | 292° |
| 2026-04-19 14:05 | -7.98011 | -36.80108 | 8505 ft | 181 kts | 292° |
| 2026-04-19 14:05 | -7.97526 | -36.81272 | 8505 ft | 181 kts | 292° |
| 2026-04-19 14:05 | -7.97038 | -36.82442 | 8505 ft | 181 kts | 292° |
| 2026-04-19 14:06 | -7.96529 | -36.83616 | 8504 ft | 182 kts | 296° |
| 2026-04-19 14:06 | -7.95947 | -36.84751 | 8505 ft | 182 kts | 296° |
| 2026-04-19 14:06 | -7.95393 | -36.85870 | 8505 ft | 182 kts | 296° |
| 2026-04-19 14:06 | -7.94822 | -36.87020 | 8505 ft | 182 kts | 296° |
| 2026-04-19 14:07 | -7.94260 | -36.88147 | 8505 ft | 182 kts | 296° |
| 2026-04-19 14:07 | -7.93689 | -36.89289 | 8505 ft | 182 kts | 296° |
| 2026-04-19 14:07 | -7.93135 | -36.90396 | 8505 ft | 182 kts | 296° |
| 2026-04-19 14:07 | -7.92571 | -36.91526 | 8504 ft | 182 kts | 296° |
| 2026-04-19 14:08 | -7.91997 | -36.92673 | 8504 ft | 181 kts | 296° |
| 2026-04-19 14:08 | -7.91433 | -36.93801 | 8504 ft | 181 kts | 296° |
| 2026-04-19 14:08 | -7.90860 | -36.94946 | 8504 ft | 181 kts | 296° |
| 2026-04-19 14:08 | -7.90294 | -36.96077 | 8504 ft | 181 kts | 296° |
| 2026-04-19 14:09 | -7.89732 | -36.97204 | 8504 ft | 181 kts | 296° |
| 2026-04-19 14:09 | -7.89158 | -36.98349 | 8505 ft | 181 kts | 296° |
| 2026-04-19 14:09 | -7.88588 | -36.99490 | 8505 ft | 182 kts | 296° |
| 2026-04-19 14:09 | -7.87994 | -37.00604 | 8503 ft | 182 kts | 299° |
| 2026-04-19 14:10 | -7.87396 | -37.01714 | 8504 ft | 181 kts | 297° |
| 2026-04-19 14:10 | -7.86800 | -37.02843 | 8504 ft | 181 kts | 298° |
| 2026-04-19 14:10 | -7.86205 | -37.03955 | 8504 ft | 181 kts | 298° |
| 2026-04-19 14:10 | -7.85602 | -37.05078 | 8504 ft | 181 kts | 298° |
| 2026-04-19 14:11 | -7.85001 | -37.06194 | 8504 ft | 181 kts | 298° |
| 2026-04-19 14:11 | -7.84399 | -37.07314 | 8504 ft | 181 kts | 298° |
| 2026-04-19 14:11 | -7.83812 | -37.08406 | 8505 ft | 182 kts | 298° |
| 2026-04-19 14:11 | -7.83214 | -37.09517 | 8506 ft | 182 kts | 298° |
| 2026-04-19 14:12 | -7.82608 | -37.10641 | 8506 ft | 182 kts | 298° |
| 2026-04-19 14:12 | -7.82008 | -37.11759 | 8506 ft | 182 kts | 298° |
| 2026-04-19 14:12 | -7.81397 | -37.12894 | 8506 ft | 182 kts | 298° |
| 2026-04-19 14:12 | -7.80795 | -37.14012 | 8506 ft | 182 kts | 298° |
| 2026-04-19 14:13 | -7.80192 | -37.15133 | 8506 ft | 182 kts | 298° |
| 2026-04-19 14:13 | -7.79585 | -37.16260 | 8505 ft | 182 kts | 298° |
| 2026-04-19 14:13 | -7.78986 | -37.17372 | 8505 ft | 182 kts | 298° |
| 2026-04-19 14:13 | -7.78380 | -37.18498 | 8505 ft | 182 kts | 298° |
| 2026-04-19 14:14 | -7.77773 | -37.19627 | 8505 ft | 182 kts | 298° |
| 2026-04-19 14:14 | -7.77173 | -37.20741 | 8505 ft | 181 kts | 298° |
| 2026-04-19 14:14 | -7.76575 | -37.21849 | 8505 ft | 181 kts | 298° |
| 2026-04-19 14:14 | -7.75971 | -37.22975 | 8505 ft | 181 kts | 298° |
| 2026-04-19 14:15 | -7.75372 | -37.24085 | 8504 ft | 181 kts | 298° |
| 2026-04-19 14:15 | -7.74766 | -37.25211 | 8505 ft | 182 kts | 298° |
| 2026-04-19 14:15 | -7.74165 | -37.26325 | 8505 ft | 182 kts | 298° |
| 2026-04-19 14:15 | -7.73559 | -37.27451 | 8505 ft | 182 kts | 298° |
| 2026-04-19 14:16 | -7.72960 | -37.28563 | 8505 ft | 182 kts | 298° |
| 2026-04-19 14:16 | -7.72362 | -37.29673 | 8505 ft | 182 kts | 298° |
| 2026-04-19 14:16 | -7.71805 | -37.30707 | 8505 ft | 182 kts | 298° |
| 2026-04-19 14:16 | -7.71208 | -37.31816 | 8505 ft | 182 kts | 298° |
| 2026-04-19 14:17 | -7.70602 | -37.32940 | 8505 ft | 182 kts | 298° |
| 2026-04-19 14:17 | -7.70001 | -37.34054 | 8505 ft | 182 kts | 298° |
| 2026-04-19 14:17 | -7.69393 | -37.35184 | 8505 ft | 182 kts | 298° |
| 2026-04-19 14:17 | -7.68794 | -37.36293 | 8505 ft | 182 kts | 298° |
| 2026-04-19 14:18 | -7.68192 | -37.37411 | 8505 ft | 181 kts | 298° |
| 2026-04-19 14:18 | -7.67584 | -37.38539 | 8505 ft | 182 kts | 298° |
| 2026-04-19 14:18 | -7.66984 | -37.39650 | 8505 ft | 181 kts | 298° |
| 2026-04-19 14:18 | -7.66378 | -37.40776 | 8505 ft | 181 kts | 298° |
| 2026-04-19 14:19 | -7.65779 | -37.41886 | 8505 ft | 181 kts | 298° |
| 2026-04-19 14:19 | -7.65181 | -37.42997 | 8505 ft | 181 kts | 298° |
| 2026-04-19 14:19 | -7.64575 | -37.44123 | 8505 ft | 181 kts | 298° |
| 2026-04-19 14:19 | -7.63987 | -37.45230 | 8506 ft | 182 kts | 298° |
| 2026-04-19 14:20 | -7.63388 | -37.46356 | 8506 ft | 182 kts | 298° |
| 2026-04-19 14:20 | -7.62786 | -37.47487 | 8506 ft | 182 kts | 298° |
| 2026-04-19 14:20 | -7.62192 | -37.48600 | 8506 ft | 182 kts | 298° |
| 2026-04-19 14:20 | -7.61589 | -37.49731 | 8506 ft | 182 kts | 298° |
| 2026-04-19 14:21 | -7.60993 | -37.50847 | 8506 ft | 182 kts | 298° |
| 2026-04-19 14:21 | -7.60390 | -37.51981 | 8506 ft | 182 kts | 298° |
| 2026-04-19 14:21 | -7.59794 | -37.53097 | 8506 ft | 182 kts | 298° |
| 2026-04-19 14:21 | -7.59193 | -37.54225 | 8507 ft | 182 kts | 298° |
| 2026-04-19 14:22 | -7.58598 | -37.55340 | 8506 ft | 182 kts | 298° |
| 2026-04-19 14:22 | -7.58002 | -37.56457 | 8506 ft | 182 kts | 298° |
| 2026-04-19 14:22 | -7.57419 | -37.57550 | 8506 ft | 182 kts | 298° |
| 2026-04-19 14:22 | -7.56808 | -37.58698 | 8506 ft | 182 kts | 298° |
| 2026-04-19 14:23 | -7.56206 | -37.59824 | 8506 ft | 182 kts | 298° |
| 2026-04-19 14:23 | -7.55605 | -37.60954 | 8507 ft | 182 kts | 298° |
| 2026-04-19 14:23 | -7.55010 | -37.62067 | 8506 ft | 182 kts | 298° |
| 2026-04-19 14:23 | -7.54416 | -37.63180 | 8506 ft | 182 kts | 298° |
| 2026-04-19 14:24 | -7.53816 | -37.64303 | 8506 ft | 182 kts | 298° |
| 2026-04-19 14:24 | -7.53215 | -37.65430 | 8506 ft | 182 kts | 298° |
| 2026-04-19 14:24 | -7.52619 | -37.66547 | 8506 ft | 182 kts | 298° |
| 2026-04-19 14:24 | -7.52015 | -37.67677 | 8506 ft | 182 kts | 298° |
| 2026-04-19 14:25 | -7.51442 | -37.68801 | 8506 ft | 182 kts | 295° |
| 2026-04-19 14:25 | -7.50875 | -37.69949 | 8506 ft | 182 kts | 297° |
| 2026-04-19 14:25 | -7.50301 | -37.71073 | 8506 ft | 182 kts | 296° |
| 2026-04-19 14:25 | -7.49726 | -37.72217 | 8507 ft | 182 kts | 296° |
| 2026-04-19 14:26 | -7.49163 | -37.73344 | 8507 ft | 182 kts | 296° |
| 2026-04-19 14:26 | -7.48591 | -37.74487 | 8507 ft | 182 kts | 296° |
| 2026-04-19 14:26 | -7.48027 | -37.75617 | 8507 ft | 182 kts | 296° |
| 2026-04-19 14:26 | -7.47455 | -37.76761 | 8507 ft | 182 kts | 296° |
| 2026-04-19 14:27 | -7.46891 | -37.77889 | 8507 ft | 182 kts | 296° |
| 2026-04-19 14:27 | -7.46319 | -37.79032 | 8507 ft | 182 kts | 296° |
| 2026-04-19 14:27 | -7.45748 | -37.80177 | 8507 ft | 181 kts | 296° |
| 2026-04-19 14:27 | -7.45185 | -37.81303 | 8508 ft | 182 kts | 296° |
| 2026-04-19 14:28 | -7.44613 | -37.82445 | 8507 ft | 182 kts | 296° |
| 2026-04-19 14:28 | -7.44048 | -37.83577 | 8507 ft | 181 kts | 296° |
| 2026-04-19 14:28 | -7.43483 | -37.84708 | 8507 ft | 182 kts | 296° |
| 2026-04-19 14:28 | -7.42909 | -37.85852 | 8507 ft | 182 kts | 296° |
| 2026-04-19 14:29 | -7.42340 | -37.86992 | 8507 ft | 182 kts | 296° |
| 2026-04-19 14:29 | -7.41775 | -37.88121 | 8507 ft | 182 kts | 296° |
| 2026-04-19 14:29 | -7.41199 | -37.89271 | 8509 ft | 182 kts | 296° |
| 2026-04-19 14:29 | -7.40634 | -37.90405 | 8508 ft | 182 kts | 296° |
| 2026-04-19 14:30 | -7.40064 | -37.91542 | 8508 ft | 182 kts | 296° |
| 2026-04-19 14:30 | -7.39495 | -37.92678 | 8508 ft | 182 kts | 296° |
| 2026-04-19 14:30 | -7.38921 | -37.93826 | 8508 ft | 182 kts | 296° |
| 2026-04-19 14:30 | -7.38355 | -37.94958 | 8507 ft | 182 kts | 296° |
| 2026-04-19 14:31 | -7.37791 | -37.96085 | 8508 ft | 182 kts | 296° |
| 2026-04-19 14:31 | -7.37219 | -37.97227 | 8507 ft | 182 kts | 296° |
| 2026-04-19 14:31 | -7.36651 | -37.98369 | 8508 ft | 182 kts | 295° |
| 2026-04-19 14:31 | -7.36165 | -37.99535 | 8514 ft | 181 kts | 292° |
| 2026-04-19 14:32 | -7.35636 | -38.00771 | 8035 ft | 202 kts | 293° |
| 2026-04-19 14:32 | -7.35065 | -38.02104 | 7502 ft | 214 kts | 292° |
| 2026-04-19 14:32 | -7.34467 | -38.03504 | 6968 ft | 219 kts | 293° |
| 2026-04-19 14:32 | -7.33858 | -38.04929 | 6423 ft | 221 kts | 293° |
| 2026-04-19 14:33 | -7.33252 | -38.06346 | 5791 ft | 222 kts | 292° |
| 2026-04-19 14:33 | -7.32688 | -38.07682 | 5041 ft | 197 kts | 292° |
| 2026-04-19 14:33 | -7.32164 | -38.08911 | 4285 ft | 185 kts | 293° |
| 2026-04-19 14:33 | -7.31661 | -38.10082 | 3529 ft | 179 kts | 293° |
| 2026-04-19 14:34 | -7.31174 | -38.11218 | 2858 ft | 174 kts | 292° |
| 2026-04-19 14:34 | -7.30992 | -38.12338 | 2503 ft | 157 kts | 256° |
| 2026-04-19 14:34 | -7.31500 | -38.13210 | 2353 ft | 137 kts | 220° |
| 2026-04-19 14:35 | -7.33134 | -38.13545 | 2060 ft | 118 kts | 159° |
| 2026-04-19 14:35 | -7.33799 | -38.13102 | 1921 ft | 115 kts | 131° |
| 2026-04-19 14:35 | -7.34168 | -38.12398 | 1784 ft | 112 kts | 104° |
| 2026-04-19 14:35 | -7.34181 | -38.11659 | 1685 ft | 104 kts | 79° |
| 2026-04-19 14:36 | -7.33928 | -38.10984 | 1558 ft | 100 kts | 69° |
| 2026-04-19 14:36 | -7.33676 | -38.10338 | 1424 ft | 98 kts | 69° |
| 2026-04-19 14:36 | -7.33435 | -38.09728 | 1420 ft | 93 kts | 70° |
| 2026-04-19 14:36 | -7.33195 | -38.09111 | 1427 ft | 96 kts | 70° |
| 2026-04-19 14:37 | -7.32986 | -38.08471 | 1431 ft | 97 kts | 85° |
| 2026-04-19 14:37 | -7.32942 | -38.07781 | 1435 ft | 98 kts | 88° |
| 2026-04-19 14:37 | -7.32939 | -38.07101 | 1439 ft | 97 kts | 93° |
| 2026-04-19 14:37 | -7.32995 | -38.06426 | 1438 ft | 97 kts | 98° |
| 2026-04-19 14:38 | -7.33117 | -38.05760 | 1436 ft | 96 kts | 104° |
| 2026-04-19 14:38 | -7.33314 | -38.05119 | 1435 ft | 95 kts | 111° |
| 2026-04-19 14:38 | -7.33543 | -38.04502 | 1431 ft | 94 kts | 110° |
| 2026-04-19 14:38 | -7.33804 | -38.03894 | 1432 ft | 94 kts | 117° |
| 2026-04-19 14:39 | -7.34162 | -38.03343 | 1430 ft | 95 kts | 130° |
| 2026-04-19 14:39 | -7.34642 | -38.02883 | 1431 ft | 96 kts | 146° |
| 2026-04-19 14:39 | -7.35243 | -38.02613 | 1432 ft | 99 kts | 167° |
| 2026-04-19 14:39 | -7.35921 | -38.02732 | 1432 ft | 102 kts | 207° |
| 2026-04-19 14:40 | -7.36376 | -38.03260 | 1435 ft | 104 kts | 248° |
| 2026-04-19 14:40 | -7.36371 | -38.03974 | 1437 ft | 106 kts | 292° |
| 2026-04-19 14:40 | -7.35867 | -38.04495 | 1438 ft | 105 kts | 339° |
| 2026-04-19 14:40 | -7.35172 | -38.04726 | 1440 ft | 106 kts | 341° |
| 2026-04-19 14:41 | -7.34488 | -38.04987 | 1437 ft | 104 kts | 341° |
| 2026-04-19 14:41 | -7.33861 | -38.05283 | 1414 ft | 97 kts | 318° |
| 2026-04-19 14:41 | -7.33576 | -38.05837 | 1423 ft | 83 kts | 291° |
| 2026-04-19 14:41 | -7.33337 | -38.06333 | 1395 ft | 79 kts | 294° |
| 2026-04-19 14:42 | -7.33095 | -38.06859 | 1413 ft | 86 kts | 295° |
| 2026-04-19 14:42 | -7.32830 | -38.07408 | 1436 ft | 84 kts | 296° |
| 2026-04-19 14:42 | -7.32615 | -38.07938 | 1386 ft | 79 kts | 290° |
| 2026-04-19 14:42 | -7.32414 | -38.08445 | 1354 ft | 77 kts | 291° |
| 2026-04-19 14:43 | -7.32197 | -38.08931 | 1300 ft | 75 kts | 293° |
| 2026-04-19 14:43 | -7.31981 | -38.09407 | 1240 ft | 73 kts | 294° |
| 2026-04-19 14:43 | -7.31778 | -38.09880 | 1161 ft | 75 kts | 292° |
| 2026-04-19 14:43 | -7.31559 | -38.10370 | 1054 ft | 77 kts | 294° |
| 2026-04-19 14:44 | -7.31342 | -38.10852 | 958 ft | 73 kts | 293° |
| 2026-04-19 14:44 | -7.31162 | -38.11260 | 949 ft | 48 kts | 293° |
| 2026-04-19 14:44 | -7.31088 | -38.11422 | 949 ft | 11 kts | 295° |
| 2026-04-19 14:44 | -7.31062 | -38.11435 | 949 ft | 6 kts | 53° |
| 2026-04-19 14:45 | -7.31036 | -38.11402 | 949 ft | 9 kts | 101° |
| 2026-04-19 14:45 | -7.31061 | -38.11395 | 949 ft | 4 kts | 262° |
| 2026-04-19 14:45 | -7.31057 | -38.11405 | 949 ft | 0 kts | 295° |